sensor_id;sensor_type;location;lat;lon;timestamp;P1;durP1;ratioP1;P2;durP2;ratioP2
55364;SDS011;41245;45.384;20.390;2023-08-24T00:00:57;16.67;;;11.00;;
55364;SDS011;41245;45.384;20.390;2023-08-24T00:03:23;12.63;;;10.63;;
55364;SDS011;41245;45.384;20.390;2023-08-24T00:05:49;15.95;;;10.48;;
55364;SDS011;41245;45.384;20.390;2023-08-24T00:08:16;18.63;;;10.25;;
55364;SDS011;41245;45.384;20.390;2023-08-24T00:10:43;19.77;;;10.18;;
55364;SDS011;41245;45.384;20.390;2023-08-24T00:13:12;12.45;;;9.93;;
55364;SDS011;41245;45.384;20.390;2023-08-24T00:15:39;24.17;;;11.25;;
55364;SDS011;41245;45.384;20.390;2023-08-24T00:18:05;19.85;;;10.75;;
55364;SDS011;41245;45.384;20.390;2023-08-24T00:20:32;17.27;;;10.57;;
55364;SDS011;41245;45.384;20.390;2023-08-24T00:22:58;17.70;;;11.27;;
55364;SDS011;41245;45.384;20.390;2023-08-24T00:25:24;16.88;;;12.50;;
55364;SDS011;41245;45.384;20.390;2023-08-24T00:27:52;15.45;;;10.35;;
55364;SDS011;41245;45.384;20.390;2023-08-24T00:30:18;17.02;;;11.70;;
55364;SDS011;41245;45.384;20.390;2023-08-24T00:32:45;15.77;;;11.32;;
55364;SDS011;41245;45.384;20.390;2023-08-24T00:35:11;20.10;;;10.50;;
55364;SDS011;41245;45.384;20.390;2023-08-24T00:37:37;13.45;;;10.55;;
55364;SDS011;41245;45.384;20.390;2023-08-24T00:40:04;20.52;;;11.63;;
55364;SDS011;41245;45.384;20.390;2023-08-24T00:42:36;15.80;;;10.55;;
55364;SDS011;41245;45.384;20.390;2023-08-24T00:45:03;17.48;;;11.13;;
55364;SDS011;41245;45.384;20.390;2023-08-24T00:47:29;18.10;;;11.48;;
55364;SDS011;41245;45.384;20.390;2023-08-24T00:49:55;17.17;;;11.45;;
55364;SDS011;41245;45.384;20.390;2023-08-24T00:52:21;18.60;;;10.98;;
55364;SDS011;41245;45.384;20.390;2023-08-24T00:54:47;22.33;;;10.40;;
55364;SDS011;41245;45.384;20.390;2023-08-24T00:57:13;21.33;;;11.45;;
55364;SDS011;41245;45.384;20.390;2023-08-24T00:59:40;19.17;;;12.15;;
55364;SDS011;41245;45.384;20.390;2023-08-24T01:02:06;18.52;;;11.57;;
55364;SDS011;41245;45.384;20.390;2023-08-24T01:04:32;22.40;;;11.20;;
55364;SDS011;41245;45.384;20.390;2023-08-24T01:06:58;30.90;;;11.77;;
55364;SDS011;41245;45.384;20.390;2023-08-24T01:09:24;15.07;;;11.43;;
55364;SDS011;41245;45.384;20.390;2023-08-24T01:16:52;18.75;;;11.00;;
55364;SDS011;41245;45.384;20.390;2023-08-24T01:19:34;20.73;;;12.13;;
55364;SDS011;41245;45.384;20.390;2023-08-24T01:22:05;18.13;;;12.38;;
55364;SDS011;41245;45.384;20.390;2023-08-24T01:24:42;18.98;;;12.07;;
55364;SDS011;41245;45.384;20.390;2023-08-24T01:27:13;20.10;;;11.55;;
55364;SDS011;41245;45.384;20.390;2023-08-24T01:29:40;17.60;;;11.00;;
55364;SDS011;41245;45.384;20.390;2023-08-24T01:32:10;21.85;;;12.82;;
55364;SDS011;41245;45.384;20.390;2023-08-24T01:34:39;18.95;;;11.75;;
55364;SDS011;41245;45.384;20.390;2023-08-24T01:37:06;21.05;;;12.10;;
55364;SDS011;41245;45.384;20.390;2023-08-24T01:39:37;19.48;;;12.07;;
55364;SDS011;41245;45.384;20.390;2023-08-24T01:42:05;17.05;;;12.32;;
55364;SDS011;41245;45.384;20.390;2023-08-24T01:44:35;22.27;;;12.55;;
55364;SDS011;41245;45.384;20.390;2023-08-24T01:47:03;23.13;;;12.90;;
55364;SDS011;41245;45.384;20.390;2023-08-24T01:49:30;19.30;;;12.38;;
55364;SDS011;41245;45.384;20.390;2023-08-24T01:51:57;18.85;;;12.32;;
55364;SDS011;41245;45.384;20.390;2023-08-24T01:54:24;14.27;;;12.80;;
55364;SDS011;41245;45.384;20.390;2023-08-24T01:56:50;16.73;;;12.95;;
55364;SDS011;41245;45.384;20.390;2023-08-24T01:59:16;18.85;;;13.38;;
55364;SDS011;41245;45.384;20.390;2023-08-24T02:01:42;16.60;;;13.43;;
55364;SDS011;41245;45.384;20.390;2023-08-24T02:04:08;19.83;;;13.00;;
55364;SDS011;41245;45.384;20.390;2023-08-24T02:06:34;27.35;;;14.43;;
55364;SDS011;41245;45.384;20.390;2023-08-24T02:09:00;21.73;;;13.63;;
55364;SDS011;41245;45.384;20.390;2023-08-24T02:11:26;19.80;;;14.38;;
55364;SDS011;41245;45.384;20.390;2023-08-24T02:13:52;19.75;;;14.05;;
55364;SDS011;41245;45.384;20.390;2023-08-24T02:16:18;18.83;;;12.50;;
55364;SDS011;41245;45.384;20.390;2023-08-24T02:18:44;28.63;;;14.27;;
55364;SDS011;41245;45.384;20.390;2023-08-24T02:21:10;21.17;;;13.68;;
55364;SDS011;41245;45.384;20.390;2023-08-24T02:23:37;16.67;;;13.90;;
55364;SDS011;41245;45.384;20.390;2023-08-24T02:26:03;21.58;;;13.98;;
55364;SDS011;41245;45.384;20.390;2023-08-24T02:28:29;18.75;;;13.40;;
55364;SDS011;41245;45.384;20.390;2023-08-24T02:31:00;21.67;;;13.95;;
55364;SDS011;41245;45.384;20.390;2023-08-24T02:33:26;20.90;;;13.43;;
55364;SDS011;41245;45.384;20.390;2023-08-24T02:35:52;23.55;;;14.00;;
55364;SDS011;41245;45.384;20.390;2023-08-24T02:38:18;22.80;;;13.02;;
55364;SDS011;41245;45.384;20.390;2023-08-24T02:40:44;19.48;;;13.45;;
55364;SDS011;41245;45.384;20.390;2023-08-24T02:43:10;20.65;;;14.38;;
55364;SDS011;41245;45.384;20.390;2023-08-24T02:45:37;19.48;;;14.23;;
55364;SDS011;41245;45.384;20.390;2023-08-24T02:48:03;17.35;;;13.15;;
55364;SDS011;41245;45.384;20.390;2023-08-24T02:50:29;19.92;;;14.98;;
55364;SDS011;41245;45.384;20.390;2023-08-24T02:52:56;17.20;;;14.35;;
55364;SDS011;41245;45.384;20.390;2023-08-24T02:55:23;19.67;;;14.55;;
55364;SDS011;41245;45.384;20.390;2023-08-24T02:57:49;21.40;;;14.73;;
55364;SDS011;41245;45.384;20.390;2023-08-24T03:00:15;19.13;;;14.57;;
55364;SDS011;41245;45.384;20.390;2023-08-24T03:02:42;20.67;;;15.63;;
55364;SDS011;41245;45.384;20.390;2023-08-24T03:05:08;27.15;;;15.63;;
55364;SDS011;41245;45.384;20.390;2023-08-24T03:07:34;22.58;;;14.48;;
55364;SDS011;41245;45.384;20.390;2023-08-24T03:10:00;17.20;;;14.05;;
55364;SDS011;41245;45.384;20.390;2023-08-24T03:12:26;25.10;;;16.35;;
55364;SDS011;41245;45.384;20.390;2023-08-24T03:14:52;20.52;;;14.90;;
55364;SDS011;41245;45.384;20.390;2023-08-24T03:17:19;25.70;;;14.93;;
55364;SDS011;41245;45.384;20.390;2023-08-24T03:19:45;18.30;;;14.30;;
55364;SDS011;41245;45.384;20.390;2023-08-24T03:22:11;21.08;;;14.32;;
55364;SDS011;41245;45.384;20.390;2023-08-24T03:24:37;20.90;;;15.18;;
55364;SDS011;41245;45.384;20.390;2023-08-24T03:27:03;22.77;;;14.80;;
55364;SDS011;41245;45.384;20.390;2023-08-24T03:29:29;24.75;;;14.48;;
55364;SDS011;41245;45.384;20.390;2023-08-24T03:31:55;20.75;;;16.05;;
55364;SDS011;41245;45.384;20.390;2023-08-24T03:34:21;19.17;;;14.27;;
55364;SDS011;41245;45.384;20.390;2023-08-24T03:36:48;26.10;;;15.90;;
55364;SDS011;41245;45.384;20.390;2023-08-24T03:39:14;18.48;;;15.20;;
55364;SDS011;41245;45.384;20.390;2023-08-24T03:41:40;30.08;;;15.25;;
55364;SDS011;41245;45.384;20.390;2023-08-24T03:44:06;26.02;;;15.00;;
55364;SDS011;41245;45.384;20.390;2023-08-24T03:46:32;19.77;;;14.18;;
55364;SDS011;41245;45.384;20.390;2023-08-24T03:48:59;25.33;;;14.82;;
55364;SDS011;41245;45.384;20.390;2023-08-24T03:51:25;18.17;;;15.27;;
55364;SDS011;41245;45.384;20.390;2023-08-24T03:53:51;24.58;;;14.90;;
55364;SDS011;41245;45.384;20.390;2023-08-24T03:56:17;26.65;;;16.10;;
55364;SDS011;41245;45.384;20.390;2023-08-24T03:58:43;18.27;;;15.52;;
55364;SDS011;41245;45.384;20.390;2023-08-24T04:01:10;27.52;;;15.95;;
55364;SDS011;41245;45.384;20.390;2023-08-24T04:03:36;22.17;;;15.85;;
55364;SDS011;41245;45.384;20.390;2023-08-24T04:06:02;26.48;;;16.05;;
55364;SDS011;41245;45.384;20.390;2023-08-24T04:08:28;17.52;;;15.45;;
55364;SDS011;41245;45.384;20.390;2023-08-24T04:10:54;23.83;;;14.82;;
55364;SDS011;41245;45.384;20.390;2023-08-24T04:13:20;20.23;;;14.88;;
55364;SDS011;41245;45.384;20.390;2023-08-24T04:15:47;19.95;;;14.50;;
55364;SDS011;41245;45.384;20.390;2023-08-24T04:18:13;20.63;;;15.45;;
55364;SDS011;41245;45.384;20.390;2023-08-24T04:20:39;21.13;;;13.70;;
55364;SDS011;41245;45.384;20.390;2023-08-24T04:23:05;21.40;;;14.13;;
55364;SDS011;41245;45.384;20.390;2023-08-24T04:25:31;22.50;;;13.98;;
55364;SDS011;41245;45.384;20.390;2023-08-24T04:27:57;22.50;;;14.65;;
55364;SDS011;41245;45.384;20.390;2023-08-24T04:30:23;21.67;;;14.55;;
55364;SDS011;41245;45.384;20.390;2023-08-24T04:32:49;20.40;;;14.88;;
55364;SDS011;41245;45.384;20.390;2023-08-24T04:35:16;20.67;;;14.57;;
55364;SDS011;41245;45.384;20.390;2023-08-24T04:37:42;18.33;;;13.10;;
55364;SDS011;41245;45.384;20.390;2023-08-24T04:40:08;17.23;;;12.30;;
55364;SDS011;41245;45.384;20.390;2023-08-24T04:42:34;19.65;;;14.07;;
55364;SDS011;41245;45.384;20.390;2023-08-24T04:45:00;19.27;;;12.98;;
55364;SDS011;41245;45.384;20.390;2023-08-24T04:47:26;20.92;;;13.48;;
55364;SDS011;41245;45.384;20.390;2023-08-24T04:49:53;19.20;;;12.48;;
55364;SDS011;41245;45.384;20.390;2023-08-24T04:52:19;16.35;;;12.77;;
55364;SDS011;41245;45.384;20.390;2023-08-24T04:54:45;17.08;;;12.52;;
55364;SDS011;41245;45.384;20.390;2023-08-24T04:57:11;15.25;;;12.77;;
55364;SDS011;41245;45.384;20.390;2023-08-24T04:59:38;17.70;;;12.55;;
55364;SDS011;41245;45.384;20.390;2023-08-24T05:02:04;16.58;;;12.95;;
55364;SDS011;41245;45.384;20.390;2023-08-24T05:04:30;30.88;;;12.82;;
55364;SDS011;41245;45.384;20.390;2023-08-24T05:06:56;18.55;;;13.10;;
55364;SDS011;41245;45.384;20.390;2023-08-24T05:09:22;17.17;;;12.55;;
55364;SDS011;41245;45.384;20.390;2023-08-24T05:11:48;20.55;;;12.93;;
55364;SDS011;41245;45.384;20.390;2023-08-24T05:14:14;15.52;;;11.63;;
55364;SDS011;41245;45.384;20.390;2023-08-24T05:16:40;17.65;;;11.93;;
55364;SDS011;41245;45.384;20.390;2023-08-24T05:19:06;15.13;;;11.95;;
55364;SDS011;41245;45.384;20.390;2023-08-24T05:21:32;14.48;;;12.32;;
55364;SDS011;41245;45.384;20.390;2023-08-24T05:23:58;15.60;;;11.80;;
55364;SDS011;41245;45.384;20.390;2023-08-24T05:26:24;12.20;;;10.95;;
55364;SDS011;41245;45.384;20.390;2023-08-24T05:28:52;20.27;;;12.35;;
55364;SDS011;41245;45.384;20.390;2023-08-24T05:31:18;16.83;;;12.07;;
55364;SDS011;41245;45.384;20.390;2023-08-24T05:33:44;14.30;;;11.55;;
55364;SDS011;41245;45.384;20.390;2023-08-24T05:36:10;22.58;;;11.48;;
55364;SDS011;41245;45.384;20.390;2023-08-24T05:38:36;22.30;;;12.07;;
55364;SDS011;41245;45.384;20.390;2023-08-24T05:41:03;12.93;;;11.10;;
55364;SDS011;41245;45.384;20.390;2023-08-24T05:43:29;15.52;;;11.93;;
55364;SDS011;41245;45.384;20.390;2023-08-24T05:45:55;14.60;;;11.65;;
55364;SDS011;41245;45.384;20.390;2023-08-24T05:48:21;17.63;;;11.38;;
55364;SDS011;41245;45.384;20.390;2023-08-24T05:50:47;20.23;;;13.15;;
55364;SDS011;41245;45.384;20.390;2023-08-24T05:53:14;18.67;;;14.32;;
55364;SDS011;41245;45.384;20.390;2023-08-24T05:55:40;27.67;;;19.05;;
55364;SDS011;41245;45.384;20.390;2023-08-24T05:58:06;15.63;;;11.23;;
55364;SDS011;41245;45.384;20.390;2023-08-24T06:00:32;13.35;;;12.02;;
55364;SDS011;41245;45.384;20.390;2023-08-24T06:02:58;14.73;;;10.57;;
55364;SDS011;41245;45.384;20.390;2023-08-24T06:05:24;17.35;;;11.63;;
55364;SDS011;41245;45.384;20.390;2023-08-24T06:07:51;14.25;;;10.93;;
55364;SDS011;41245;45.384;20.390;2023-08-24T06:10:17;16.13;;;10.07;;
55364;SDS011;41245;45.384;20.390;2023-08-24T06:12:43;15.27;;;9.57;;
55364;SDS011;41245;45.384;20.390;2023-08-24T06:15:09;11.82;;;9.73;;
55364;SDS011;41245;45.384;20.390;2023-08-24T06:17:38;12.77;;;9.93;;
55364;SDS011;41245;45.384;20.390;2023-08-24T06:20:04;13.07;;;9.45;;
55364;SDS011;41245;45.384;20.390;2023-08-24T06:22:30;14.25;;;8.73;;
55364;SDS011;41245;45.384;20.390;2023-08-24T06:24:56;19.17;;;10.10;;
55364;SDS011;41245;45.384;20.390;2023-08-24T06:27:26;17.00;;;9.10;;
55364;SDS011;41245;45.384;20.390;2023-08-24T06:29:52;14.45;;;9.43;;
55364;SDS011;41245;45.384;20.390;2023-08-24T06:32:18;10.55;;;8.90;;
55364;SDS011;41245;45.384;20.390;2023-08-24T06:34:44;14.57;;;8.20;;
55364;SDS011;41245;45.384;20.390;2023-08-24T06:37:10;8.57;;;7.70;;
55364;SDS011;41245;45.384;20.390;2023-08-24T06:39:36;13.88;;;8.30;;
55364;SDS011;41245;45.384;20.390;2023-08-24T06:42:02;16.20;;;8.13;;
55364;SDS011;41245;45.384;20.390;2023-08-24T06:44:28;14.40;;;7.63;;
55364;SDS011;41245;45.384;20.390;2023-08-24T06:46:54;11.30;;;7.82;;
55364;SDS011;41245;45.384;20.390;2023-08-24T06:49:21;9.82;;;7.80;;
55364;SDS011;41245;45.384;20.390;2023-08-24T06:51:47;10.48;;;7.40;;
55364;SDS011;41245;45.384;20.390;2023-08-24T06:54:13;11.05;;;7.47;;
55364;SDS011;41245;45.384;20.390;2023-08-24T06:56:39;9.15;;;7.57;;
55364;SDS011;41245;45.384;20.390;2023-08-24T06:59:06;12.68;;;7.32;;
55364;SDS011;41245;45.384;20.390;2023-08-24T07:01:32;12.18;;;8.30;;
55364;SDS011;41245;45.384;20.390;2023-08-24T07:03:58;23.38;;;7.80;;
55364;SDS011;41245;45.384;20.390;2023-08-24T07:06:24;17.20;;;7.88;;
55364;SDS011;41245;45.384;20.390;2023-08-24T07:08:50;16.55;;;7.85;;
55364;SDS011;41245;45.384;20.390;2023-08-24T07:11:16;8.93;;;7.93;;
55364;SDS011;41245;45.384;20.390;2023-08-24T07:13:42;12.75;;;8.05;;
55364;SDS011;41245;45.384;20.390;2023-08-24T07:16:11;15.50;;;7.80;;
55364;SDS011;41245;45.384;20.390;2023-08-24T07:18:37;11.90;;;8.23;;
55364;SDS011;41245;45.384;20.390;2023-08-24T07:21:03;14.48;;;7.47;;
55364;SDS011;41245;45.384;20.390;2023-08-24T07:23:29;16.27;;;7.68;;
55364;SDS011;41245;45.384;20.390;2023-08-24T07:25:55;10.50;;;7.45;;
55364;SDS011;41245;45.384;20.390;2023-08-24T07:28:21;8.20;;;7.40;;
55364;SDS011;41245;45.384;20.390;2023-08-24T07:30:47;19.23;;;7.85;;
55364;SDS011;41245;45.384;20.390;2023-08-24T07:33:13;10.50;;;8.35;;
55364;SDS011;41245;45.384;20.390;2023-08-24T07:35:40;9.80;;;8.10;;
55364;SDS011;41245;45.384;20.390;2023-08-24T07:38:06;15.23;;;7.32;;
55364;SDS011;41245;45.384;20.390;2023-08-24T07:40:32;11.48;;;9.27;;
55364;SDS011;41245;45.384;20.390;2023-08-24T07:42:58;12.10;;;7.68;;
55364;SDS011;41245;45.384;20.390;2023-08-24T07:45:25;10.68;;;8.32;;
55364;SDS011;41245;45.384;20.390;2023-08-24T07:47:51;11.20;;;7.25;;
55364;SDS011;41245;45.384;20.390;2023-08-24T07:50:18;10.20;;;7.60;;
55364;SDS011;41245;45.384;20.390;2023-08-24T07:52:44;10.43;;;7.82;;
55364;SDS011;41245;45.384;20.390;2023-08-24T07:55:10;8.90;;;7.18;;
55364;SDS011;41245;45.384;20.390;2023-08-24T07:57:37;11.50;;;6.90;;
55364;SDS011;41245;45.384;20.390;2023-08-24T08:00:03;12.68;;;7.93;;
55364;SDS011;41245;45.384;20.390;2023-08-24T08:02:35;9.10;;;7.03;;
55364;SDS011;41245;45.384;20.390;2023-08-24T08:05:02;12.40;;;7.70;;
55364;SDS011;41245;45.384;20.390;2023-08-24T08:07:28;7.30;;;6.38;;
55364;SDS011;41245;45.384;20.390;2023-08-24T08:09:54;7.65;;;6.75;;
55364;SDS011;41245;45.384;20.390;2023-08-24T08:12:21;13.82;;;7.80;;
55364;SDS011;41245;45.384;20.390;2023-08-24T08:14:47;7.65;;;6.93;;
55364;SDS011;41245;45.384;20.390;2023-08-24T08:17:13;10.88;;;6.65;;
55364;SDS011;41245;45.384;20.390;2023-08-24T08:19:39;15.52;;;7.90;;
55364;SDS011;41245;45.384;20.390;2023-08-24T08:22:06;12.40;;;7.00;;
55364;SDS011;41245;45.384;20.390;2023-08-24T08:24:32;10.25;;;6.85;;
55364;SDS011;41245;45.384;20.390;2023-08-24T08:26:58;9.77;;;6.88;;
55364;SDS011;41245;45.384;20.390;2023-08-24T08:29:24;9.77;;;8.02;;
55364;SDS011;41245;45.384;20.390;2023-08-24T08:31:50;9.77;;;7.20;;
55364;SDS011;41245;45.384;20.390;2023-08-24T08:34:16;37.83;;;23.23;;
55364;SDS011;41245;45.384;20.390;2023-08-24T08:36:42;25.98;;;15.82;;
55364;SDS011;41245;45.384;20.390;2023-08-24T08:39:09;15.25;;;9.40;;
55364;SDS011;41245;45.384;20.390;2023-08-24T08:41:39;20.98;;;15.70;;
55364;SDS011;41245;45.384;20.390;2023-08-24T08:44:07;12.25;;;9.43;;
55364;SDS011;41245;45.384;20.390;2023-08-24T08:46:34;13.38;;;7.68;;
55364;SDS011;41245;45.384;20.390;2023-08-24T08:49:01;23.40;;;11.27;;
55364;SDS011;41245;45.384;20.390;2023-08-24T08:51:27;13.45;;;7.80;;
55364;SDS011;41245;45.384;20.390;2023-08-24T08:53:54;11.40;;;7.53;;
55364;SDS011;41245;45.384;20.390;2023-08-24T08:56:20;19.60;;;11.95;;
55364;SDS011;41245;45.384;20.390;2023-08-24T08:58:46;15.50;;;11.35;;
55364;SDS011;41245;45.384;20.390;2023-08-24T09:01:12;14.13;;;9.77;;
55364;SDS011;41245;45.384;20.390;2023-08-24T09:03:39;15.02;;;11.45;;
55364;SDS011;41245;45.384;20.390;2023-08-24T09:06:05;11.45;;;8.65;;
55364;SDS011;41245;45.384;20.390;2023-08-24T09:08:31;9.93;;;7.90;;
55364;SDS011;41245;45.384;20.390;2023-08-24T09:11:00;20.67;;;12.75;;
55364;SDS011;41245;45.384;20.390;2023-08-24T09:13:28;12.13;;;7.63;;
55364;SDS011;41245;45.384;20.390;2023-08-24T09:15:54;12.63;;;9.32;;
55364;SDS011;41245;45.384;20.390;2023-08-24T09:18:20;8.32;;;7.20;;
55364;SDS011;41245;45.384;20.390;2023-08-24T09:20:47;10.38;;;7.68;;
55364;SDS011;41245;45.384;20.390;2023-08-24T09:23:17;12.93;;;7.93;;
55364;SDS011;41245;45.384;20.390;2023-08-24T09:25:46;11.45;;;7.95;;
55364;SDS011;41245;45.384;20.390;2023-08-24T09:28:12;9.20;;;7.15;;
55364;SDS011;41245;45.384;20.390;2023-08-24T09:30:38;9.25;;;6.35;;
55364;SDS011;41245;45.384;20.390;2023-08-24T09:33:09;7.85;;;7.03;;
55364;SDS011;41245;45.384;20.390;2023-08-24T09:35:35;13.40;;;7.95;;
55364;SDS011;41245;45.384;20.390;2023-08-24T09:40:46;8.98;;;6.90;;
55364;SDS011;41245;45.384;20.390;2023-08-24T09:43:16;8.07;;;6.28;;
55364;SDS011;41245;45.384;20.390;2023-08-24T09:45:48;9.32;;;6.50;;
55364;SDS011;41245;45.384;20.390;2023-08-24T09:48:17;10.02;;;7.15;;
55364;SDS011;41245;45.384;20.390;2023-08-24T09:50:47;11.13;;;7.15;;
55364;SDS011;41245;45.384;20.390;2023-08-24T09:53:17;8.10;;;6.47;;
55364;SDS011;41245;45.384;20.390;2023-08-24T09:55:44;9.63;;;6.90;;
55364;SDS011;41245;45.384;20.390;2023-08-24T09:58:15;8.70;;;6.25;;
55364;SDS011;41245;45.384;20.390;2023-08-24T10:00:43;10.32;;;6.95;;
55364;SDS011;41245;45.384;20.390;2023-08-24T10:03:12;8.63;;;6.10;;
55364;SDS011;41245;45.384;20.390;2023-08-24T10:05:44;16.45;;;11.00;;
55364;SDS011;41245;45.384;20.390;2023-08-24T10:08:10;13.10;;;8.40;;
55364;SDS011;41245;45.384;20.390;2023-08-24T10:10:36;7.43;;;5.72;;
55364;SDS011;41245;45.384;20.390;2023-08-24T10:13:06;8.55;;;5.47;;
55364;SDS011;41245;45.384;20.390;2023-08-24T10:15:34;7.78;;;6.45;;
55364;SDS011;41245;45.384;20.390;2023-08-24T10:18:02;7.47;;;6.60;;
55364;SDS011;41245;45.384;20.390;2023-08-24T10:20:28;13.05;;;7.72;;
55364;SDS011;41245;45.384;20.390;2023-08-24T10:22:54;9.50;;;5.93;;
55364;SDS011;41245;45.384;20.390;2023-08-24T10:25:21;7.40;;;6.15;;
55364;SDS011;41245;45.384;20.390;2023-08-24T10:27:49;7.70;;;5.72;;
55364;SDS011;41245;45.384;20.390;2023-08-24T10:30:15;6.22;;;5.63;;
55364;SDS011;41245;45.384;20.390;2023-08-24T10:32:43;13.82;;;8.00;;
55364;SDS011;41245;45.384;20.390;2023-08-24T10:35:10;13.07;;;9.07;;
55364;SDS011;41245;45.384;20.390;2023-08-24T10:37:40;10.23;;;7.05;;
55364;SDS011;41245;45.384;20.390;2023-08-24T10:40:06;7.65;;;6.30;;
55364;SDS011;41245;45.384;20.390;2023-08-24T10:42:43;7.65;;;5.22;;
55364;SDS011;41245;45.384;20.390;2023-08-24T10:45:09;6.43;;;5.22;;
55364;SDS011;41245;45.384;20.390;2023-08-24T10:47:43;9.15;;;6.43;;
55364;SDS011;41245;45.384;20.390;2023-08-24T10:50:10;15.40;;;8.18;;
55364;SDS011;41245;45.384;20.390;2023-08-24T10:52:37;9.40;;;6.07;;
55364;SDS011;41245;45.384;20.390;2023-08-24T10:55:04;10.93;;;5.50;;
55364;SDS011;41245;45.384;20.390;2023-08-24T10:57:37;13.70;;;5.13;;
55364;SDS011;41245;45.384;20.390;2023-08-24T11:00:10;7.60;;;5.00;;
55364;SDS011;41245;45.384;20.390;2023-08-24T11:02:46;10.15;;;4.80;;
55364;SDS011;41245;45.384;20.390;2023-08-24T11:05:28;10.63;;;6.07;;
55364;SDS011;41245;45.384;20.390;2023-08-24T11:07:58;8.20;;;4.47;;
55364;SDS011;41245;45.384;20.390;2023-08-24T11:10:25;8.07;;;4.93;;
55364;SDS011;41245;45.384;20.390;2023-08-24T11:13:11;7.30;;;4.82;;
55364;SDS011;41245;45.384;20.390;2023-08-24T11:15:55;5.53;;;4.65;;
55364;SDS011;41245;45.384;20.390;2023-08-24T11:18:24;6.18;;;4.72;;
55364;SDS011;41245;45.384;20.390;2023-08-24T11:20:55;7.78;;;4.88;;
55364;SDS011;41245;45.384;20.390;2023-08-24T11:23:23;7.70;;;5.28;;
55364;SDS011;41245;45.384;20.390;2023-08-24T11:25:50;6.75;;;4.03;;
55364;SDS011;41245;45.384;20.390;2023-08-24T11:28:20;10.70;;;4.57;;
55364;SDS011;41245;45.384;20.390;2023-08-24T11:30:46;4.97;;;4.20;;
55364;SDS011;41245;45.384;20.390;2023-08-24T11:33:13;9.82;;;4.22;;
55364;SDS011;41245;45.384;20.390;2023-08-24T11:35:43;7.40;;;4.95;;
55364;SDS011;41245;45.384;20.390;2023-08-24T11:38:09;6.65;;;4.13;;
55364;SDS011;41245;45.384;20.390;2023-08-24T11:40:36;5.97;;;3.92;;
55364;SDS011;41245;45.384;20.390;2023-08-24T11:43:02;12.38;;;4.32;;
55364;SDS011;41245;45.384;20.390;2023-08-24T11:45:30;5.07;;;3.90;;
55364;SDS011;41245;45.384;20.390;2023-08-24T11:47:57;5.00;;;4.40;;
55364;SDS011;41245;45.384;20.390;2023-08-24T11:50:24;8.57;;;4.70;;
55364;SDS011;41245;45.384;20.390;2023-08-24T11:52:52;5.82;;;3.90;;
55364;SDS011;41245;45.384;20.390;2023-08-24T11:55:18;8.27;;;4.80;;
55364;SDS011;41245;45.384;20.390;2023-08-24T11:57:44;6.32;;;4.10;;
55364;SDS011;41245;45.384;20.390;2023-08-24T12:00:10;8.48;;;4.78;;
55364;SDS011;41245;45.384;20.390;2023-08-24T12:02:39;11.13;;;4.10;;
55364;SDS011;41245;45.384;20.390;2023-08-24T12:05:06;7.72;;;4.85;;
55364;SDS011;41245;45.384;20.390;2023-08-24T12:07:32;6.72;;;3.70;;
55364;SDS011;41245;45.384;20.390;2023-08-24T12:10:02;7.03;;;4.65;;
55364;SDS011;41245;45.384;20.390;2023-08-24T12:14:54;7.07;;;4.40;;
55364;SDS011;41245;45.384;20.390;2023-08-24T12:17:23;5.53;;;4.10;;
55364;SDS011;41245;45.384;20.390;2023-08-24T12:19:59;7.57;;;4.22;;
55364;SDS011;41245;45.384;20.390;2023-08-24T12:22:30;5.68;;;4.15;;
55364;SDS011;41245;45.384;20.390;2023-08-24T12:24:56;7.75;;;4.05;;
55364;SDS011;41245;45.384;20.390;2023-08-24T12:27:23;11.77;;;3.90;;
55364;SDS011;41245;45.384;20.390;2023-08-24T12:29:49;6.13;;;4.05;;
55364;SDS011;41245;45.384;20.390;2023-08-24T12:32:16;9.45;;;4.00;;
55364;SDS011;41245;45.384;20.390;2023-08-24T12:34:45;15.88;;;4.38;;
55364;SDS011;41245;45.384;20.390;2023-08-24T12:37:11;6.15;;;3.90;;
55364;SDS011;41245;45.384;20.390;2023-08-24T12:39:38;10.00;;;4.15;;
55364;SDS011;41245;45.384;20.390;2023-08-24T12:42:05;8.02;;;4.82;;
55364;SDS011;41245;45.384;20.390;2023-08-24T12:44:31;4.63;;;4.22;;
55364;SDS011;41245;45.384;20.390;2023-08-24T12:47:00;7.60;;;4.60;;
55364;SDS011;41245;45.384;20.390;2023-08-24T12:49:26;6.97;;;4.85;;
55364;SDS011;41245;45.384;20.390;2023-08-24T12:51:52;5.15;;;4.38;;
55364;SDS011;41245;45.384;20.390;2023-08-24T12:54:18;9.95;;;4.75;;
55364;SDS011;41245;45.384;20.390;2023-08-24T12:56:45;4.65;;;4.25;;
55364;SDS011;41245;45.384;20.390;2023-08-24T12:59:11;6.95;;;4.72;;
55364;SDS011;41245;45.384;20.390;2023-08-24T13:01:37;7.07;;;4.38;;
55364;SDS011;41245;45.384;20.390;2023-08-24T13:04:03;5.80;;;4.20;;
55364;SDS011;41245;45.384;20.390;2023-08-24T13:06:30;6.00;;;4.60;;
55364;SDS011;41245;45.384;20.390;2023-08-24T13:08:56;5.57;;;4.03;;
55364;SDS011;41245;45.384;20.390;2023-08-24T13:11:22;7.35;;;4.72;;
55364;SDS011;41245;45.384;20.390;2023-08-24T13:13:48;6.13;;;4.70;;
55364;SDS011;41245;45.384;20.390;2023-08-24T13:16:14;7.18;;;5.38;;
55364;SDS011;41245;45.384;20.390;2023-08-24T13:18:42;5.85;;;5.18;;
55364;SDS011;41245;45.384;20.390;2023-08-24T13:21:08;8.23;;;4.32;;
55364;SDS011;41245;45.384;20.390;2023-08-24T13:23:34;6.85;;;4.13;;
55364;SDS011;41245;45.384;20.390;2023-08-24T13:26:00;8.35;;;4.78;;
55364;SDS011;41245;45.384;20.390;2023-08-24T13:28:27;5.93;;;4.63;;
55364;SDS011;41245;45.384;20.390;2023-08-24T13:30:54;7.90;;;4.30;;
55364;SDS011;41245;45.384;20.390;2023-08-24T13:33:20;5.32;;;4.43;;
55364;SDS011;41245;45.384;20.390;2023-08-24T13:35:46;22.95;;;4.68;;
55364;SDS011;41245;45.384;20.390;2023-08-24T13:38:12;4.93;;;3.88;;
55364;SDS011;41245;45.384;20.390;2023-08-24T13:40:39;10.65;;;4.78;;
55364;SDS011;41245;45.384;20.390;2023-08-24T13:43:05;14.13;;;5.07;;
55364;SDS011;41245;45.384;20.390;2023-08-24T13:45:31;11.57;;;4.75;;
55364;SDS011;41245;45.384;20.390;2023-08-24T13:47:59;8.70;;;4.33;;
55364;SDS011;41245;45.384;20.390;2023-08-24T13:50:25;8.90;;;4.45;;
55364;SDS011;41245;45.384;20.390;2023-08-24T13:52:51;12.90;;;5.18;;
55364;SDS011;41245;45.384;20.390;2023-08-24T13:55:17;4.85;;;4.22;;
55364;SDS011;41245;45.384;20.390;2023-08-24T13:57:43;6.45;;;4.38;;
55364;SDS011;41245;45.384;20.390;2023-08-24T14:00:09;10.63;;;4.50;;
55364;SDS011;41245;45.384;20.390;2023-08-24T14:02:36;7.63;;;4.32;;
55364;SDS011;41245;45.384;20.390;2023-08-24T14:05:02;11.65;;;4.20;;
55364;SDS011;41245;45.384;20.390;2023-08-24T14:07:31;5.68;;;4.28;;
55364;SDS011;41245;45.384;20.390;2023-08-24T14:09:57;6.15;;;4.28;;
55364;SDS011;41245;45.384;20.390;2023-08-24T14:12:23;10.32;;;4.55;;
55364;SDS011;41245;45.384;20.390;2023-08-24T14:14:49;10.57;;;4.05;;
55364;SDS011;41245;45.384;20.390;2023-08-24T14:17:15;10.20;;;4.25;;
55364;SDS011;41245;45.384;20.390;2023-08-24T14:19:41;6.00;;;4.25;;
55364;SDS011;41245;45.384;20.390;2023-08-24T14:22:07;9.88;;;4.85;;
55364;SDS011;41245;45.384;20.390;2023-08-24T14:24:33;10.40;;;4.95;;
55364;SDS011;41245;45.384;20.390;2023-08-24T14:26:59;7.45;;;4.22;;